sensor_id;sensor_type;location;lat;lon;timestamp;P1;durP1;ratioP1;P2;durP2;ratioP2
82032;SDS011;71595;52.180;4.512;2023-09-12T00:01:40;55.33;;;28.85;;
82032;SDS011;71595;52.180;4.512;2023-09-12T00:04:05;52.97;;;27.88;;
82032;SDS011;71595;52.180;4.512;2023-09-12T00:06:31;53.65;;;27.58;;
82032;SDS011;71595;52.180;4.512;2023-09-12T00:08:56;54.88;;;27.60;;
82032;SDS011;71595;52.180;4.512;2023-09-12T00:11:21;55.75;;;28.42;;
82032;SDS011;71595;52.180;4.512;2023-09-12T00:13:56;55.97;;;27.60;;
82032;SDS011;71595;52.180;4.512;2023-09-12T00:16:21;54.58;;;27.92;;
82032;SDS011;71595;52.180;4.512;2023-09-12T00:18:47;54.88;;;28.27;;
82032;SDS011;71595;52.180;4.512;2023-09-12T00:21:12;50.45;;;27.80;;
82032;SDS011;71595;52.180;4.512;2023-09-12T00:23:38;51.67;;;26.88;;
82032;SDS011;71595;52.180;4.512;2023-09-12T00:26:03;53.50;;;25.55;;
82032;SDS011;71595;52.180;4.512;2023-09-12T00:28:28;51.95;;;26.52;;
82032;SDS011;71595;52.180;4.512;2023-09-12T00:30:54;47.35;;;25.70;;
82032;SDS011;71595;52.180;4.512;2023-09-12T00:33:19;48.03;;;25.27;;
82032;SDS011;71595;52.180;4.512;2023-09-12T00:35:45;49.17;;;25.23;;
82032;SDS011;71595;52.180;4.512;2023-09-12T00:38:10;53.22;;;25.17;;
82032;SDS011;71595;52.180;4.512;2023-09-12T00:40:36;52.50;;;27.27;;
82032;SDS011;71595;52.180;4.512;2023-09-12T00:43:02;49.55;;;26.13;;
82032;SDS011;71595;52.180;4.512;2023-09-12T00:45:28;48.10;;;25.90;;
82032;SDS011;71595;52.180;4.512;2023-09-12T00:47:53;49.83;;;24.65;;
82032;SDS011;71595;52.180;4.512;2023-09-12T00:50:20;47.17;;;24.55;;
82032;SDS011;71595;52.180;4.512;2023-09-12T00:52:50;49.78;;;25.25;;
82032;SDS011;71595;52.180;4.512;2023-09-12T00:55:15;47.45;;;24.75;;
82032;SDS011;71595;52.180;4.512;2023-09-12T00:57:41;45.55;;;23.33;;
82032;SDS011;71595;52.180;4.512;2023-09-12T01:00:07;44.55;;;24.02;;
82032;SDS011;71595;52.180;4.512;2023-09-12T01:02:37;44.83;;;23.88;;
82032;SDS011;71595;52.180;4.512;2023-09-12T01:05:05;48.95;;;23.67;;
82032;SDS011;71595;52.180;4.512;2023-09-12T01:07:32;46.55;;;25.27;;
82032;SDS011;71595;52.180;4.512;2023-09-12T01:09:58;48.45;;;26.10;;
82032;SDS011;71595;52.180;4.512;2023-09-12T01:12:29;48.35;;;24.77;;
82032;SDS011;71595;52.180;4.512;2023-09-12T01:14:55;43.80;;;23.13;;
82032;SDS011;71595;52.180;4.512;2023-09-12T01:17:21;46.08;;;23.05;;
82032;SDS011;71595;52.180;4.512;2023-09-12T01:19:47;45.28;;;22.17;;
82032;SDS011;71595;52.180;4.512;2023-09-12T01:25:21;43.55;;;22.17;;
82032;SDS011;71595;52.180;4.512;2023-09-12T01:27:51;44.22;;;22.30;;
82032;SDS011;71595;52.180;4.512;2023-09-12T01:30:20;39.92;;;20.40;;
82032;SDS011;71595;52.180;4.512;2023-09-12T01:32:47;38.70;;;21.80;;
82032;SDS011;71595;52.180;4.512;2023-09-12T01:35:13;44.50;;;22.02;;
82032;SDS011;71595;52.180;4.512;2023-09-12T01:37:38;39.92;;;20.35;;
82032;SDS011;71595;52.180;4.512;2023-09-12T01:40:06;38.88;;;19.48;;
82032;SDS011;71595;52.180;4.512;2023-09-12T01:42:36;37.53;;;20.30;;
82032;SDS011;71595;52.180;4.512;2023-09-12T01:45:03;36.30;;;19.50;;
82032;SDS011;71595;52.180;4.512;2023-09-12T01:47:30;38.00;;;19.85;;
82032;SDS011;71595;52.180;4.512;2023-09-12T01:49:57;36.75;;;19.15;;
82032;SDS011;71595;52.180;4.512;2023-09-12T01:52:26;36.33;;;18.40;;
82032;SDS011;71595;52.180;4.512;2023-09-12T01:54:53;36.15;;;19.08;;
82032;SDS011;71595;52.180;4.512;2023-09-12T01:57:20;38.50;;;19.17;;
82032;SDS011;71595;52.180;4.512;2023-09-12T01:59:46;37.28;;;19.08;;
82032;SDS011;71595;52.180;4.512;2023-09-12T02:02:16;40.72;;;19.98;;
82032;SDS011;71595;52.180;4.512;2023-09-12T02:07:37;37.95;;;19.17;;
82032;SDS011;71595;52.180;4.512;2023-09-12T02:10:04;35.13;;;17.92;;
82032;SDS011;71595;52.180;4.512;2023-09-12T02:12:30;37.97;;;19.10;;
82032;SDS011;71595;52.180;4.512;2023-09-12T02:14:56;39.33;;;19.92;;
82032;SDS011;71595;52.180;4.512;2023-09-12T02:17:22;37.20;;;18.25;;
82032;SDS011;71595;52.180;4.512;2023-09-12T02:19:48;39.17;;;20.30;;
82032;SDS011;71595;52.180;4.512;2023-09-12T02:22:13;40.40;;;19.80;;
82032;SDS011;71595;52.180;4.512;2023-09-12T02:24:39;37.53;;;18.40;;
82032;SDS011;71595;52.180;4.512;2023-09-12T02:27:04;39.10;;;19.70;;
82032;SDS011;71595;52.180;4.512;2023-09-12T02:29:30;39.60;;;20.88;;
82032;SDS011;71595;52.180;4.512;2023-09-12T02:32:03;38.58;;;19.58;;
82032;SDS011;71595;52.180;4.512;2023-09-12T02:36:54;38.70;;;19.42;;
82032;SDS011;71595;52.180;4.512;2023-09-12T02:39:20;43.53;;;19.70;;
82032;SDS011;71595;52.180;4.512;2023-09-12T02:41:45;38.92;;;19.80;;
82032;SDS011;71595;52.180;4.512;2023-09-12T02:44:10;36.47;;;18.67;;
82032;SDS011;71595;52.180;4.512;2023-09-12T02:46:36;39.88;;;19.70;;
82032;SDS011;71595;52.180;4.512;2023-09-12T02:51:52;40.47;;;18.98;;
82032;SDS011;71595;52.180;4.512;2023-09-12T02:54:17;35.42;;;18.90;;
82032;SDS011;71595;52.180;4.512;2023-09-12T02:56:43;41.78;;;20.65;;
82032;SDS011;71595;52.180;4.512;2023-09-12T02:59:08;33.92;;;18.50;;
82032;SDS011;71595;52.180;4.512;2023-09-12T03:01:34;36.67;;;19.50;;
82032;SDS011;71595;52.180;4.512;2023-09-12T03:03:59;39.10;;;18.88;;
82032;SDS011;71595;52.180;4.512;2023-09-12T03:06:25;37.13;;;18.58;;
82032;SDS011;71595;52.180;4.512;2023-09-12T03:08:50;36.20;;;18.25;;
82032;SDS011;71595;52.180;4.512;2023-09-12T03:11:19;37.47;;;19.42;;
82032;SDS011;71595;52.180;4.512;2023-09-12T03:13:44;35.60;;;18.67;;
82032;SDS011;71595;52.180;4.512;2023-09-12T03:16:10;41.22;;;19.35;;
82032;SDS011;71595;52.180;4.512;2023-09-12T03:18:36;34.47;;;17.27;;
82032;SDS011;71595;52.180;4.512;2023-09-12T03:21:02;37.60;;;19.10;;
82032;SDS011;71595;52.180;4.512;2023-09-12T03:23:27;38.88;;;19.67;;
82032;SDS011;71595;52.180;4.512;2023-09-12T03:25:53;35.20;;;17.83;;
82032;SDS011;71595;52.180;4.512;2023-09-12T03:28:18;35.20;;;17.90;;
82032;SDS011;71595;52.180;4.512;2023-09-12T03:30:43;36.88;;;17.75;;
82032;SDS011;71595;52.180;4.512;2023-09-12T03:33:09;36.15;;;18.58;;
82032;SDS011;71595;52.180;4.512;2023-09-12T03:35:42;34.58;;;17.58;;
82032;SDS011;71595;52.180;4.512;2023-09-12T03:38:08;38.42;;;18.00;;
82032;SDS011;71595;52.180;4.512;2023-09-12T03:40:33;36.08;;;17.50;;
82032;SDS011;71595;52.180;4.512;2023-09-12T03:42:59;38.33;;;18.10;;
82032;SDS011;71595;52.180;4.512;2023-09-12T03:45:24;35.60;;;18.02;;
82032;SDS011;71595;52.180;4.512;2023-09-12T03:47:49;36.00;;;16.92;;
82032;SDS011;71595;52.180;4.512;2023-09-12T03:50:15;35.92;;;17.38;;
82032;SDS011;71595;52.180;4.512;2023-09-12T03:52:41;35.17;;;17.33;;
82032;SDS011;71595;52.180;4.512;2023-09-12T03:55:06;33.70;;;16.73;;
82032;SDS011;71595;52.180;4.512;2023-09-12T03:57:32;38.75;;;17.63;;
82032;SDS011;71595;52.180;4.512;2023-09-12T03:59:57;37.22;;;17.40;;
82032;SDS011;71595;52.180;4.512;2023-09-12T04:02:23;34.33;;;17.65;;
82032;SDS011;71595;52.180;4.512;2023-09-12T04:04:49;32.83;;;16.13;;
82032;SDS011;71595;52.180;4.512;2023-09-12T04:07:14;35.50;;;17.80;;
82032;SDS011;71595;52.180;4.512;2023-09-12T04:09:39;38.15;;;18.17;;
82032;SDS011;71595;52.180;4.512;2023-09-12T04:12:05;33.97;;;16.27;;
82032;SDS011;71595;52.180;4.512;2023-09-12T04:14:32;40.38;;;17.73;;
82032;SDS011;71595;52.180;4.512;2023-09-12T04:16:57;36.97;;;17.67;;
82032;SDS011;71595;52.180;4.512;2023-09-12T04:19:22;33.05;;;16.05;;
82032;SDS011;71595;52.180;4.512;2023-09-12T04:21:48;34.88;;;16.52;;
82032;SDS011;71595;52.180;4.512;2023-09-12T04:24:19;37.80;;;18.13;;
82032;SDS011;71595;52.180;4.512;2023-09-12T04:26:46;36.78;;;17.95;;
82032;SDS011;71595;52.180;4.512;2023-09-12T04:29:11;35.10;;;16.73;;
82032;SDS011;71595;52.180;4.512;2023-09-12T04:31:36;33.33;;;16.83;;
82032;SDS011;71595;52.180;4.512;2023-09-12T04:34:02;33.60;;;17.50;;
82032;SDS011;71595;52.180;4.512;2023-09-12T04:36:27;35.80;;;16.63;;
82032;SDS011;71595;52.180;4.512;2023-09-12T04:38:53;35.50;;;17.85;;
82032;SDS011;71595;52.180;4.512;2023-09-12T04:41:18;36.78;;;16.77;;
82032;SDS011;71595;52.180;4.512;2023-09-12T04:43:44;41.55;;;18.08;;
82032;SDS011;71595;52.180;4.512;2023-09-12T04:46:10;39.97;;;18.45;;
82032;SDS011;71595;52.180;4.512;2023-09-12T04:48:37;37.55;;;16.98;;
82032;SDS011;71595;52.180;4.512;2023-09-12T04:51:02;35.40;;;16.48;;
82032;SDS011;71595;52.180;4.512;2023-09-12T04:53:28;39.70;;;17.35;;
82032;SDS011;71595;52.180;4.512;2023-09-12T04:55:59;42.80;;;18.23;;
82032;SDS011;71595;52.180;4.512;2023-09-12T04:58:25;43.05;;;18.38;;
82032;SDS011;71595;52.180;4.512;2023-09-12T05:00:50;44.90;;;17.92;;
82032;SDS011;71595;52.180;4.512;2023-09-12T05:03:15;39.25;;;18.20;;
82032;SDS011;71595;52.180;4.512;2023-09-12T05:05:41;40.22;;;16.88;;
82032;SDS011;71595;52.180;4.512;2023-09-12T05:08:06;40.35;;;17.80;;
82032;SDS011;71595;52.180;4.512;2023-09-12T05:10:32;45.50;;;18.63;;
82032;SDS011;71595;52.180;4.512;2023-09-12T05:12:57;39.67;;;17.90;;
82032;SDS011;71595;52.180;4.512;2023-09-12T05:15:23;40.65;;;18.85;;
82032;SDS011;71595;52.180;4.512;2023-09-12T05:17:48;42.60;;;20.52;;
82032;SDS011;71595;52.180;4.512;2023-09-12T05:20:16;38.30;;;17.98;;
82032;SDS011;71595;52.180;4.512;2023-09-12T05:22:42;40.00;;;18.13;;
82032;SDS011;71595;52.180;4.512;2023-09-12T05:25:07;41.95;;;19.10;;
82032;SDS011;71595;52.180;4.512;2023-09-12T05:27:33;39.58;;;18.90;;
82032;SDS011;71595;52.180;4.512;2023-09-12T05:29:58;44.95;;;19.52;;
82032;SDS011;71595;52.180;4.512;2023-09-12T05:32:24;41.13;;;20.60;;
82032;SDS011;71595;52.180;4.512;2023-09-12T05:34:49;46.28;;;20.10;;
82032;SDS011;71595;52.180;4.512;2023-09-12T05:37:15;48.50;;;19.38;;
82032;SDS011;71595;52.180;4.512;2023-09-12T05:39:41;43.60;;;18.73;;
82032;SDS011;71595;52.180;4.512;2023-09-12T05:42:06;53.65;;;22.08;;
82032;SDS011;71595;52.180;4.512;2023-09-12T05:44:32;43.53;;;18.75;;
82032;SDS011;71595;52.180;4.512;2023-09-12T05:46:57;42.05;;;20.15;;
82032;SDS011;71595;52.180;4.512;2023-09-12T05:49:23;41.17;;;18.92;;
82032;SDS011;71595;52.180;4.512;2023-09-12T05:51:48;40.47;;;20.13;;
82032;SDS011;71595;52.180;4.512;2023-09-12T05:54:14;42.63;;;19.65;;
82032;SDS011;71595;52.180;4.512;2023-09-12T05:56:39;45.90;;;18.42;;
82032;SDS011;71595;52.180;4.512;2023-09-12T05:59:05;42.25;;;20.13;;
82032;SDS011;71595;52.180;4.512;2023-09-12T06:01:31;43.47;;;19.75;;
82032;SDS011;71595;52.180;4.512;2023-09-12T06:03:56;42.58;;;18.45;;
82032;SDS011;71595;52.180;4.512;2023-09-12T06:06:21;44.10;;;19.30;;
82032;SDS011;71595;52.180;4.512;2023-09-12T06:08:47;47.88;;;19.75;;
82032;SDS011;71595;52.180;4.512;2023-09-12T06:11:13;44.90;;;20.23;;
82032;SDS011;71595;52.180;4.512;2023-09-12T06:13:38;42.70;;;19.75;;
82032;SDS011;71595;52.180;4.512;2023-09-12T06:16:05;43.05;;;20.20;;
82032;SDS011;71595;52.180;4.512;2023-09-12T06:18:31;43.78;;;19.70;;
82032;SDS011;71595;52.180;4.512;2023-09-12T06:21:00;45.00;;;19.42;;
82032;SDS011;71595;52.180;4.512;2023-09-12T06:23:31;40.45;;;18.83;;
82032;SDS011;71595;52.180;4.512;2023-09-12T06:25:56;42.45;;;19.17;;
82032;SDS011;71595;52.180;4.512;2023-09-12T06:28:26;46.63;;;19.90;;
82032;SDS011;71595;52.180;4.512;2023-09-12T06:30:52;44.13;;;19.88;;
82032;SDS011;71595;52.180;4.512;2023-09-12T06:33:17;46.50;;;19.80;;
82032;SDS011;71595;52.180;4.512;2023-09-12T06:35:42;48.90;;;20.95;;
82032;SDS011;71595;52.180;4.512;2023-09-12T06:38:08;46.67;;;19.20;;
82032;SDS011;71595;52.180;4.512;2023-09-12T06:40:33;45.78;;;20.17;;
82032;SDS011;71595;52.180;4.512;2023-09-12T06:42:58;47.78;;;20.45;;
82032;SDS011;71595;52.180;4.512;2023-09-12T06:45:24;50.03;;;20.70;;
82032;SDS011;71595;52.180;4.512;2023-09-12T06:47:49;50.28;;;21.60;;
82032;SDS011;71595;52.180;4.512;2023-09-12T06:50:14;47.53;;;22.17;;
82032;SDS011;71595;52.180;4.512;2023-09-12T06:52:42;45.05;;;20.02;;
82032;SDS011;71595;52.180;4.512;2023-09-12T06:55:07;46.95;;;21.60;;
82032;SDS011;71595;52.180;4.512;2023-09-12T06:57:33;50.25;;;20.92;;
82032;SDS011;71595;52.180;4.512;2023-09-12T06:59:58;50.20;;;21.17;;
82032;SDS011;71595;52.180;4.512;2023-09-12T07:02:24;45.63;;;21.17;;
82032;SDS011;71595;52.180;4.512;2023-09-12T07:04:49;47.20;;;20.63;;
82032;SDS011;71595;52.180;4.512;2023-09-12T07:07:14;46.15;;;19.98;;
82032;SDS011;71595;52.180;4.512;2023-09-12T07:09:40;45.03;;;20.30;;
82032;SDS011;71595;52.180;4.512;2023-09-12T07:12:05;45.95;;;20.50;;
82032;SDS011;71595;52.180;4.512;2023-09-12T07:14:31;44.67;;;19.75;;
82032;SDS011;71595;52.180;4.512;2023-09-12T07:16:56;46.47;;;20.63;;
82032;SDS011;71595;52.180;4.512;2023-09-12T07:19:22;45.38;;;20.60;;
82032;SDS011;71595;52.180;4.512;2023-09-12T07:21:47;44.00;;;20.30;;
82032;SDS011;71595;52.180;4.512;2023-09-12T07:24:12;47.83;;;20.20;;
82032;SDS011;71595;52.180;4.512;2023-09-12T07:26:38;43.90;;;19.80;;
82032;SDS011;71595;52.180;4.512;2023-09-12T07:29:06;45.88;;;19.63;;
82032;SDS011;71595;52.180;4.512;2023-09-12T07:31:32;48.13;;;21.00;;
82032;SDS011;71595;52.180;4.512;2023-09-12T07:33:57;52.15;;;22.15;;
82032;SDS011;71595;52.180;4.512;2023-09-12T07:36:23;50.35;;;21.70;;
82032;SDS011;71595;52.180;4.512;2023-09-12T07:38:48;43.47;;;19.25;;
82032;SDS011;71595;52.180;4.512;2023-09-12T07:41:14;47.97;;;20.33;;
82032;SDS011;71595;52.180;4.512;2023-09-12T07:43:40;45.75;;;20.27;;
82032;SDS011;71595;52.180;4.512;2023-09-12T07:46:05;44.45;;;20.58;;
82032;SDS011;71595;52.180;4.512;2023-09-12T07:48:30;45.08;;;18.55;;
82032;SDS011;71595;52.180;4.512;2023-09-12T07:50:56;37.58;;;18.30;;
82032;SDS011;71595;52.180;4.512;2023-09-12T07:53:21;43.40;;;19.45;;
82032;SDS011;71595;52.180;4.512;2023-09-12T07:55:47;43.88;;;19.45;;
82032;SDS011;71595;52.180;4.512;2023-09-12T07:58:15;37.60;;;18.08;;
82032;SDS011;71595;52.180;4.512;2023-09-12T08:00:43;39.45;;;18.30;;
82032;SDS011;71595;52.180;4.512;2023-09-12T08:03:09;37.10;;;18.48;;
82032;SDS011;71595;52.180;4.512;2023-09-12T08:05:34;39.10;;;17.15;;
82032;SDS011;71595;52.180;4.512;2023-09-12T08:08:00;41.03;;;18.25;;
82032;SDS011;71595;52.180;4.512;2023-09-12T08:10:26;40.70;;;19.35;;
82032;SDS011;71595;52.180;4.512;2023-09-12T08:12:51;37.17;;;19.25;;
82032;SDS011;71595;52.180;4.512;2023-09-12T08:15:17;43.38;;;18.25;;
82032;SDS011;71595;52.180;4.512;2023-09-12T08:17:42;36.75;;;18.75;;
82032;SDS011;71595;52.180;4.512;2023-09-12T08:20:08;35.70;;;17.42;;
82032;SDS011;71595;52.180;4.512;2023-09-12T08:22:37;35.03;;;17.88;;
82032;SDS011;71595;52.180;4.512;2023-09-12T08:25:03;33.92;;;17.15;;
82032;SDS011;71595;52.180;4.512;2023-09-12T08:27:29;42.63;;;18.15;;
82032;SDS011;71595;52.180;4.512;2023-09-12T08:29:55;34.97;;;18.00;;
82032;SDS011;71595;52.180;4.512;2023-09-12T08:32:20;33.25;;;17.15;;
82032;SDS011;71595;52.180;4.512;2023-09-12T08:34:45;34.95;;;17.75;;
82032;SDS011;71595;52.180;4.512;2023-09-12T08:37:11;36.47;;;19.13;;
82032;SDS011;71595;52.180;4.512;2023-09-12T08:39:45;31.45;;;17.95;;
82032;SDS011;71595;52.180;4.512;2023-09-12T08:42:15;33.40;;;17.35;;
82032;SDS011;71595;52.180;4.512;2023-09-12T08:44:43;35.22;;;18.45;;
82032;SDS011;71595;52.180;4.512;2023-09-12T08:47:10;33.60;;;17.92;;
82032;SDS011;71595;52.180;4.512;2023-09-12T08:49:37;33.47;;;18.25;;
82032;SDS011;71595;52.180;4.512;2023-09-12T08:52:06;36.30;;;18.48;;
82032;SDS011;71595;52.180;4.512;2023-09-12T08:54:31;34.20;;;17.73;;
82032;SDS011;71595;52.180;4.512;2023-09-12T08:56:57;30.48;;;16.60;;
82032;SDS011;71595;52.180;4.512;2023-09-12T08:59:23;28.98;;;15.70;;
82032;SDS011;71595;52.180;4.512;2023-09-12T09:01:49;28.13;;;14.95;;
82032;SDS011;71595;52.180;4.512;2023-09-12T09:04:17;25.08;;;15.20;;
82032;SDS011;71595;52.180;4.512;2023-09-12T09:06:44;22.95;;;14.18;;
82032;SDS011;71595;52.180;4.512;2023-09-12T09:09:11;27.30;;;15.35;;
82032;SDS011;71595;52.180;4.512;2023-09-12T09:11:37;25.52;;;14.40;;
82032;SDS011;71595;52.180;4.512;2023-09-12T09:14:02;27.38;;;15.07;;
82032;SDS011;71595;52.180;4.512;2023-09-12T09:16:28;26.30;;;14.43;;
82032;SDS011;71595;52.180;4.512;2023-09-12T09:19:01;24.75;;;14.20;;
82032;SDS011;71595;52.180;4.512;2023-09-12T09:21:30;24.33;;;14.18;;
82032;SDS011;71595;52.180;4.512;2023-09-12T09:24:01;27.45;;;14.90;;
82032;SDS011;71595;52.180;4.512;2023-09-12T09:26:46;24.50;;;13.75;;
82032;SDS011;71595;52.180;4.512;2023-09-12T09:29:14;23.15;;;12.40;;
82032;SDS011;71595;52.180;4.512;2023-09-12T09:31:44;21.77;;;13.40;;
82032;SDS011;71595;52.180;4.512;2023-09-12T09:34:14;20.33;;;11.85;;
82032;SDS011;71595;52.180;4.512;2023-09-12T09:36:41;23.55;;;13.25;;
82032;SDS011;71595;52.180;4.512;2023-09-12T09:39:14;21.23;;;11.35;;
82032;SDS011;71595;52.180;4.512;2023-09-12T09:41:42;16.33;;;10.43;;
82032;SDS011;71595;52.180;4.512;2023-09-12T09:44:08;18.20;;;10.55;;
82032;SDS011;71595;52.180;4.512;2023-09-12T09:46:34;19.63;;;10.93;;
82032;SDS011;71595;52.180;4.512;2023-09-12T09:49:02;20.77;;;10.98;;
82032;SDS011;71595;52.180;4.512;2023-09-12T09:51:27;18.20;;;10.70;;
82032;SDS011;71595;52.180;4.512;2023-09-12T09:53:55;18.67;;;10.38;;
82032;SDS011;71595;52.180;4.512;2023-09-12T09:56:23;18.58;;;10.35;;
82032;SDS011;71595;52.180;4.512;2023-09-12T09:58:50;19.63;;;11.13;;
82032;SDS011;71595;52.180;4.512;2023-09-12T10:01:18;18.00;;;10.80;;
82032;SDS011;71595;52.180;4.512;2023-09-12T10:03:48;15.15;;;9.38;;
82032;SDS011;71595;52.180;4.512;2023-09-12T10:06:18;17.63;;;9.95;;
82032;SDS011;71595;52.180;4.512;2023-09-12T10:08:45;20.33;;;10.45;;
82032;SDS011;71595;52.180;4.512;2023-09-12T10:11:18;14.50;;;9.63;;
82032;SDS011;71595;52.180;4.512;2023-09-12T10:13:52;18.75;;;10.57;;
82032;SDS011;71595;52.180;4.512;2023-09-12T10:16:42;17.98;;;9.90;;
82032;SDS011;71595;52.180;4.512;2023-09-12T10:24:30;13.18;;;8.32;;
82032;SDS011;71595;52.180;4.512;2023-09-12T10:27:00;17.42;;;7.82;;
82032;SDS011;71595;52.180;4.512;2023-09-12T10:29:27;10.10;;;5.97;;
82032;SDS011;71595;52.180;4.512;2023-09-12T10:31:53;10.95;;;6.78;;
82032;SDS011;71595;52.180;4.512;2023-09-12T10:34:18;11.00;;;6.68;;
82032;SDS011;71595;52.180;4.512;2023-09-12T10:36:46;10.68;;;6.03;;
82032;SDS011;71595;52.180;4.512;2023-09-12T10:39:13;10.80;;;5.93;;
82032;SDS011;71595;52.180;4.512;2023-09-12T10:41:40;11.25;;;5.80;;
82032;SDS011;71595;52.180;4.512;2023-09-12T10:44:10;13.10;;;6.82;;
82032;SDS011;71595;52.180;4.512;2023-09-12T10:46:39;14.02;;;6.72;;
82032;SDS011;71595;52.180;4.512;2023-09-12T10:49:09;14.77;;;6.80;;
82032;SDS011;71595;52.180;4.512;2023-09-12T10:51:46;14.00;;;7.45;;
82032;SDS011;71595;52.180;4.512;2023-09-12T10:54:13;14.88;;;7.55;;
82032;SDS011;71595;52.180;4.512;2023-09-12T10:56:40;11.07;;;7.28;;
82032;SDS011;71595;52.180;4.512;2023-09-12T11:01:41;13.07;;;7.25;;
82032;SDS011;71595;52.180;4.512;2023-09-12T11:06:48;11.43;;;6.18;;
82032;SDS011;71595;52.180;4.512;2023-09-12T11:11:43;14.88;;;6.00;;
82032;SDS011;71595;52.180;4.512;2023-09-12T11:14:10;14.98;;;6.90;;
82032;SDS011;71595;52.180;4.512;2023-09-12T11:16:35;13.30;;;6.28;;
82032;SDS011;71595;52.180;4.512;2023-09-12T11:19:14;10.63;;;7.20;;
82032;SDS011;71595;52.180;4.512;2023-09-12T11:21:43;13.30;;;7.18;;
82032;SDS011;71595;52.180;4.512;2023-09-12T11:24:13;11.38;;;6.78;;
82032;SDS011;71595;52.180;4.512;2023-09-12T11:29:30;11.98;;;6.30;;
82032;SDS011;71595;52.180;4.512;2023-09-12T11:32:01;13.13;;;6.53;;
82032;SDS011;71595;52.180;4.512;2023-09-12T11:34:28;17.00;;;6.47;;
82032;SDS011;71595;52.180;4.512;2023-09-12T11:36:58;14.18;;;7.32;;
82032;SDS011;71595;52.180;4.512;2023-09-12T11:39:29;10.65;;;5.93;;
82032;SDS011;71595;52.180;4.512;2023-09-12T11:41:56;12.73;;;5.95;;
82032;SDS011;71595;52.180;4.512;2023-09-12T11:44:22;14.48;;;5.70;;
82032;SDS011;71595;52.180;4.512;2023-09-12T11:46:48;10.48;;;5.93;;
82032;SDS011;71595;52.180;4.512;2023-09-12T11:49:15;9.85;;;5.43;;
82032;SDS011;71595;52.180;4.512;2023-09-12T11:51:50;10.00;;;5.78;;
82032;SDS011;71595;52.180;4.512;2023-09-12T11:54:18;10.55;;;4.82;;
82032;SDS011;71595;52.180;4.512;2023-09-12T11:56:48;10.02;;;5.22;;
82032;SDS011;71595;52.180;4.512;2023-09-12T11:59:15;10.20;;;5.75;;
82032;SDS011;71595;52.180;4.512;2023-09-12T12:01:44;9.68;;;5.35;;
82032;SDS011;71595;52.180;4.512;2023-09-12T12:04:10;7.10;;;4.70;;
82032;SDS011;71595;52.180;4.512;2023-09-12T12:06:36;8.65;;;4.85;;
82032;SDS011;71595;52.180;4.512;2023-09-12T12:09:01;11.90;;;5.70;;
82032;SDS011;71595;52.180;4.512;2023-09-12T12:11:29;8.35;;;5.22;;
82032;SDS011;71595;52.180;4.512;2023-09-12T12:13:55;9.07;;;5.20;;
82032;SDS011;71595;52.180;4.512;2023-09-12T12:16:20;9.57;;;4.88;;
82032;SDS011;71595;52.180;4.512;2023-09-12T12:18:47;14.45;;;5.20;;
82032;SDS011;71595;52.180;4.512;2023-09-12T12:21:12;10.00;;;4.93;;
82032;SDS011;71595;52.180;4.512;2023-09-12T12:23:37;7.10;;;4.45;;
82032;SDS011;71595;52.180;4.512;2023-09-12T12:26:05;8.25;;;4.88;;
82032;SDS011;71595;52.180;4.512;2023-09-12T12:28:34;12.32;;;4.65;;
82032;SDS011;71595;52.180;4.512;2023-09-12T12:31:00;11.30;;;4.78;;
82032;SDS011;71595;52.180;4.512;2023-09-12T12:33:26;9.95;;;4.43;;
82032;SDS011;71595;52.180;4.512;2023-09-12T12:36:25;6.97;;;3.97;;
82032;SDS011;71595;52.180;4.512;2023-09-12T12:38:45;7.95;;;4.30;;
82032;SDS011;71595;52.180;4.512;2023-09-12T12:41:12;8.05;;;4.80;;
82032;SDS011;71595;52.180;4.512;2023-09-12T12:43:39;6.90;;;4.40;;
82032;SDS011;71595;52.180;4.512;2023-09-12T12:46:09;6.10;;;3.75;;
82032;SDS011;71595;52.180;4.512;2023-09-12T12:48:36;5.40;;;3.45;;
82032;SDS011;71595;52.180;4.512;2023-09-12T12:51:15;4.95;;;3.47;;
82032;SDS011;71595;52.180;4.512;2023-09-12T12:53:48;5.10;;;3.20;;
82032;SDS011;71595;52.180;4.512;2023-09-12T12:56:19;7.18;;;3.65;;
82032;SDS011;71595;52.180;4.512;2023-09-12T12:58:49;6.55;;;3.75;;
82032;SDS011;71595;52.180;4.512;2023-09-12T13:01:17;6.57;;;3.85;;
82032;SDS011;71595;52.180;4.512;2023-09-12T13:03:43;7.30;;;4.03;;
82032;SDS011;71595;52.180;4.512;2023-09-12T13:06:09;6.60;;;4.10;;
82032;SDS011;71595;52.180;4.512;2023-09-12T13:08:39;6.32;;;4.13;;
82032;SDS011;71595;52.180;4.512;2023-09-12T13:11:06;7.28;;;3.70;;
82032;SDS011;71595;52.180;4.512;2023-09-12T13:13:32;5.88;;;3.22;;
82032;SDS011;71595;52.180;4.512;2023-09-12T13:15:57;5.95;;;3.63;;
82032;SDS011;71595;52.180;4.512;2023-09-12T13:18:23;6.13;;;4.07;;
82032;SDS011;71595;52.180;4.512;2023-09-12T13:20:48;5.90;;;4.13;;
82032;SDS011;71595;52.180;4.512;2023-09-12T13:23:13;7.30;;;4.15;;
82032;SDS011;71595;52.180;4.512;2023-09-12T13:25:39;5.22;;;4.40;;
82032;SDS011;71595;52.180;4.512;2023-09-12T13:28:04;8.18;;;4.07;;
82032;SDS011;71595;52.180;4.512;2023-09-12T13:30:30;8.18;;;3.97;;
82032;SDS011;71595;52.180;4.512;2023-09-12T13:32:55;7.72;;;4.15;;
82032;SDS011;71595;52.180;4.512;2023-09-12T13:35:20;7.55;;;4.47;;
82032;SDS011;71595;52.180;4.512;2023-09-12T13:37:46;7.22;;;4.25;;
82032;SDS011;71595;52.180;4.512;2023-09-12T13:40:11;6.60;;;4.30;;
82032;SDS011;71595;52.180;4.512;2023-09-12T13:42:36;10.63;;;4.20;;
82032;SDS011;71595;52.180;4.512;2023-09-12T13:45:02;7.65;;;4.30;;
82032;SDS011;71595;52.180;4.512;2023-09-12T13:47:28;7.55;;;4.22;;
82032;SDS011;71595;52.180;4.512;2023-09-12T13:49:53;7.20;;;4.50;;
82032;SDS011;71595;52.180;4.512;2023-09-12T13:52:19;5.90;;;4.40;;
82032;SDS011;71595;52.180;4.512;2023-09-12T13:54:45;6.82;;;4.53;;
82032;SDS011;71595;52.180;4.512;2023-09-12T13:57:11;11.80;;;4.85;;
82032;SDS011;71595;52.180;4.512;2023-09-12T13:59:36;7.20;;;4.93;;
82032;SDS011;71595;52.180;4.512;2023-09-12T14:02:02;11.63;;;5.30;;
82032;SDS011;71595;52.180;4.512;2023-09-12T14:04:28;10.32;;;5.32;;
82032;SDS011;71595;52.180;4.512;2023-09-12T14:06:53;10.85;;;5.40;;
82032;SDS011;71595;52.180;4.512;2023-09-12T14:09:18;11.23;;;5.65;;
82032;SDS011;71595;52.180;4.512;2023-09-12T14:11:44;10.05;;;6.72;;
82032;SDS011;71595;52.180;4.512;2023-09-12T14:14:11;11.57;;;6.03;;
82032;SDS011;71595;52.180;4.512;2023-09-12T14:16:38;8.77;;;5.10;;
82032;SDS011;71595;52.180;4.512;2023-09-12T14:19:04;7.80;;;4.63;;
82032;SDS011;71595;52.180;4.512;2023-09-12T14:21:29;7.72;;;4.32;;
82032;SDS011;71595;52.180;4.512;2023-09-12T14:23:54;6.80;;;3.75;;
82032;SDS011;71595;52.180;4.512;2023-09-12T14:26:20;8.85;;;4.20;;
82032;SDS011;71595;52.180;4.512;2023-09-12T14:28:45;10.32;;;4.10;;
82032;SDS011;71595;52.180;4.512;2023-09-12T14:31:11;5.85;;;3.47;;
82032;SDS011;71595;52.180;4.512;2023-09-12T14:33:39;5.72;;;3.13;;
82032;SDS011;71595;52.180;4.512;2023-09-12T14:36:06;9.07;;;3.65;;
82032;SDS011;71595;52.180;4.512;2023-09-12T14:38:33;7.05;;;4.00;;
82032;SDS011;71595;52.180;4.512;2023-09-12T14:40:58;7.15;;;3.72;;
82032;SDS011;71595;52.180;4.512;2023-09-12T14:43:23;8.90;;;3.90;;
82032;SDS011;71595;52.180;4.512;2023-09-12T14:45:49;8.73;;;3.70;;
82032;SDS011;71595;52.180;4.512;2023-09-12T14:48:14;9.32;;;4.10;;
82032;SDS011;71595;52.180;4.512;2023-09-12T14:50:39;7.70;;;4.07;;
82032;SDS011;71595;52.180;4.512;2023-09-12T14:53:05;5.97;;;3.83;;